Terminal Aerodrome Forecast
Issued by NWS

Home | Current Version | Previous Version | Text Only | Print | Product List | Glossary On
Versions: 1 2 3 4 5 6 7 8 9 10 11 12 13 14 15 16 17 18 19 20 21
000
FTUS41 KPBZ 300619 AAA
TAFLBE
TAF AMD
KLBE 300619Z 3006/3106 18003KT 2SM BR SCT008 SCT150
      TEMPO 3006/3010 3/4SM BR VV005
     FM301400 24005KT P6SM SCT040=

USA.gov is the U.S. government's official web portal to all federal, state and local government web resources and services.